Hlavní strana
METAR-TAF:

METAR-TAF

Letiště :

Las Vegas, Nevada, Spojené státy americké

zeměpisná šířka: 36-04-44N, zeměpisná délka: 115-09-19W, výška: 663 m

Aktuální stav počasí

Zpráva byla vytvořena před 26 minutami, v 16:56 UTC
vítr z různých směrů 4 kt
Teplota 26°C
Vlhkost vzduchu 17%
Tlak 1017 hPa
Viditelnost: 16.1 km
Polojasno ve výšce 25000 ft

METAR: KLAS 191656Z VRB04KT 10SM SCT250 26/M01 A3004 RMK AO2 SLP152 T02561006

Čas: 10:22 (17:22 UTC)

Předpověď počasí

Zpráva byla vytvořena před 56 minutami, v 16:26 UTC
Předpověď platná od 19 v 16 UTC do 20 v 18 UTC
vítr z různých směrů 5 kt
Viditelnost: 10 km
Skoro jasno ve výšce 25000 ft
Od 19 v 2300 UTC
Jihojihovýchodní vítr 8 kt
Viditelnost: 10 km
Skoro jasno ve výšce 20000 ft
Od 20 v 0600 UTC
Jihozápadní vítr 8 kt
Viditelnost: 10 km
Oblačno až skoro zataženo ve výšce 20000 ft

TAF: KLAS 191626Z 1916/2018 VRB05KT P6SM FEW250 FM192300 16008KT P6SM FEW200 FM200600 22008KT P6SM BKN200

Stav a předpovědi počasí z více než 4 000 letišť (zprávy METAR a TAF).

Červené a žluté tečky na mapě představují dostupné meteorologické stanice.

Když kurzor umístíte na tečku, zobrazí se název stanice.

Pak kliknutím zobrazíte stav a předpověď počasí.

Chcete-li změnit mapu, kliknutím na zelené tlačítko se znaménkem +mapu přiblížíte, kliknutím na zelené tlačítko se znaménkem – mapu oddálíte a kliknutím na zelené šipky přejdete na sousední mapy.


METAR-TAF: